sensor_id;sensor_type;location;lat;lon;timestamp;temperature;humidity
21019;DHT22;10667;51.056;3.732;2023-11-19T00:02:19;14.80;99.90
21019;DHT22;10667;51.056;3.732;2023-11-19T00:04:44;14.90;99.90
21019;DHT22;10667;51.056;3.732;2023-11-19T00:07:10;14.80;99.90
21019;DHT22;10667;51.056;3.732;2023-11-19T00:09:37;14.90;99.90
21019;DHT22;10667;51.056;3.732;2023-11-19T00:12:04;14.80;99.90
21019;DHT22;10667;51.056;3.732;2023-11-19T00:14:30;14.80;99.90
21019;DHT22;10667;51.056;3.732;2023-11-19T00:16:56;14.90;99.90
21019;DHT22;10667;51.056;3.732;2023-11-19T00:19:22;14.80;99.90
21019;DHT22;10667;51.056;3.732;2023-11-19T00:21:47;14.80;99.90
21019;DHT22;10667;51.056;3.732;2023-11-19T00:24:13;14.80;99.90
21019;DHT22;10667;51.056;3.732;2023-11-19T00:26:42;14.80;99.90
21019;DHT22;10667;51.056;3.732;2023-11-19T00:29:07;14.90;99.90
21019;DHT22;10667;51.056;3.732;2023-11-19T00:31:33;14.80;99.90
21019;DHT22;10667;51.056;3.732;2023-11-19T00:33:59;14.80;99.90
21019;DHT22;10667;51.056;3.732;2023-11-19T00:36:24;14.80;99.90
21019;DHT22;10667;51.056;3.732;2023-11-19T00:38:51;14.70;99.90
21019;DHT22;10667;51.056;3.732;2023-11-19T00:41:18;14.80;99.90
21019;DHT22;10667;51.056;3.732;2023-11-19T00:43:44;14.70;99.90
21019;DHT22;10667;51.056;3.732;2023-11-19T00:46:10;14.70;99.90
21019;DHT22;10667;51.056;3.732;2023-11-19T00:48:36;14.70;99.90
21019;DHT22;10667;51.056;3.732;2023-11-19T00:51:02;14.70;99.90
21019;DHT22;10667;51.056;3.732;2023-11-19T00:53:29;14.70;99.90
21019;DHT22;10667;51.056;3.732;2023-11-19T00:55:55;14.70;99.90
21019;DHT22;10667;51.056;3.732;2023-11-19T00:58:21;14.60;99.90
21019;DHT22;10667;51.056;3.732;2023-11-19T01:00:46;14.70;99.90
21019;DHT22;10667;51.056;3.732;2023-11-19T01:03:12;14.60;99.90
21019;DHT22;10667;51.056;3.732;2023-11-19T01:05:38;14.70;99.90
21019;DHT22;10667;51.056;3.732;2023-11-19T01:08:04;14.70;99.90
21019;DHT22;10667;51.056;3.732;2023-11-19T01:10:30;14.60;99.90
21019;DHT22;10667;51.056;3.732;2023-11-19T01:12:56;14.70;99.90
21019;DHT22;10667;51.056;3.732;2023-11-19T01:15:22;14.80;99.90
21019;DHT22;10667;51.056;3.732;2023-11-19T01:17:48;14.70;99.90
21019;DHT22;10667;51.056;3.732;2023-11-19T01:20:14;14.70;99.90
21019;DHT22;10667;51.056;3.732;2023-11-19T01:22:40;14.70;99.90
21019;DHT22;10667;51.056;3.732;2023-11-19T01:25:06;14.60;99.90
21019;DHT22;10667;51.056;3.732;2023-11-19T01:27:32;14.60;99.90
21019;DHT22;10667;51.056;3.732;2023-11-19T01:30:00;14.50;99.90
21019;DHT22;10667;51.056;3.732;2023-11-19T01:32:31;14.50;99.90
21019;DHT22;10667;51.056;3.732;2023-11-19T01:34:57;14.60;99.90
21019;DHT22;10667;51.056;3.732;2023-11-19T01:37:23;14.50;99.90
21019;DHT22;10667;51.056;3.732;2023-11-19T01:39:48;14.60;99.90
21019;DHT22;10667;51.056;3.732;2023-11-19T01:42:14;14.60;99.90
21019;DHT22;10667;51.056;3.732;2023-11-19T01:44:41;14.50;99.90
21019;DHT22;10667;51.056;3.732;2023-11-19T01:47:07;14.50;99.90
21019;DHT22;10667;51.056;3.732;2023-11-19T01:49:34;14.50;99.90
21019;DHT22;10667;51.056;3.732;2023-11-19T01:52:00;14.50;99.90
21019;DHT22;10667;51.056;3.732;2023-11-19T01:54:26;14.50;99.90
21019;DHT22;10667;51.056;3.732;2023-11-19T01:56:54;14.40;99.90
21019;DHT22;10667;51.056;3.732;2023-11-19T01:59:22;14.40;99.90
21019;DHT22;10667;51.056;3.732;2023-11-19T02:01:54;14.40;99.90
21019;DHT22;10667;51.056;3.732;2023-11-19T02:04:21;14.30;99.90
21019;DHT22;10667;51.056;3.732;2023-11-19T02:06:48;14.20;99.90
21019;DHT22;10667;51.056;3.732;2023-11-19T02:09:18;14.20;99.90
21019;DHT22;10667;51.056;3.732;2023-11-19T02:11:45;14.20;99.90
21019;DHT22;10667;51.056;3.732;2023-11-19T02:14:15;14.20;99.90
21019;DHT22;10667;51.056;3.732;2023-11-19T02:16:41;14.20;99.90
21019;DHT22;10667;51.056;3.732;2023-11-19T02:19:06;14.20;99.90
21019;DHT22;10667;51.056;3.732;2023-11-19T02:21:33;14.10;99.90
21019;DHT22;10667;51.056;3.732;2023-11-19T02:23:59;14.10;99.90
21019;DHT22;10667;51.056;3.732;2023-11-19T02:26:40;14.10;99.90
21019;DHT22;10667;51.056;3.732;2023-11-19T02:29:09;14.10;99.90
21019;DHT22;10667;51.056;3.732;2023-11-19T02:31:34;14.00;99.90
21019;DHT22;10667;51.056;3.732;2023-11-19T02:34:00;14.00;99.90
21019;DHT22;10667;51.056;3.732;2023-11-19T02:36:28;14.10;99.90
21019;DHT22;10667;51.056;3.732;2023-11-19T02:38:53;14.10;99.90
21019;DHT22;10667;51.056;3.732;2023-11-19T02:41:19;14.10;99.90
21019;DHT22;10667;51.056;3.732;2023-11-19T02:43:45;14.20;99.90
21019;DHT22;10667;51.056;3.732;2023-11-19T02:46:14;14.10;99.90
21019;DHT22;10667;51.056;3.732;2023-11-19T02:48:39;14.20;99.90
21019;DHT22;10667;51.056;3.732;2023-11-19T02:51:06;14.30;99.90
21019;DHT22;10667;51.056;3.732;2023-11-19T02:53:35;14.30;99.90
21019;DHT22;10667;51.056;3.732;2023-11-19T02:56:03;14.30;99.90
21019;DHT22;10667;51.056;3.732;2023-11-19T02:58:37;14.20;99.90
21019;DHT22;10667;51.056;3.732;2023-11-19T03:01:03;14.10;99.90
21019;DHT22;10667;51.056;3.732;2023-11-19T03:03:38;14.10;99.90
21019;DHT22;10667;51.056;3.732;2023-11-19T03:06:06;14.10;99.90
21019;DHT22;10667;51.056;3.732;2023-11-19T03:08:34;14.20;99.90
21019;DHT22;10667;51.056;3.732;2023-11-19T03:11:00;14.20;99.90
21019;DHT22;10667;51.056;3.732;2023-11-19T03:13:26;14.10;99.90
21019;DHT22;10667;51.056;3.732;2023-11-19T03:15:52;14.20;99.90
21019;DHT22;10667;51.056;3.732;2023-11-19T03:18:19;14.20;99.90
21019;DHT22;10667;51.056;3.732;2023-11-19T03:20:46;14.10;99.90
21019;DHT22;10667;51.056;3.732;2023-11-19T03:23:12;14.10;99.90
21019;DHT22;10667;51.056;3.732;2023-11-19T03:25:38;14.10;99.90
21019;DHT22;10667;51.056;3.732;2023-11-19T03:28:04;14.00;99.90
21019;DHT22;10667;51.056;3.732;2023-11-19T03:30:30;13.90;99.90
21019;DHT22;10667;51.056;3.732;2023-11-19T03:32:57;13.90;99.90
21019;DHT22;10667;51.056;3.732;2023-11-19T03:35:23;13.80;99.90
21019;DHT22;10667;51.056;3.732;2023-11-19T03:37:50;13.80;99.90
21019;DHT22;10667;51.056;3.732;2023-11-19T03:40:16;13.80;99.90
21019;DHT22;10667;51.056;3.732;2023-11-19T03:42:42;13.80;99.90
21019;DHT22;10667;51.056;3.732;2023-11-19T03:45:08;13.80;99.90
21019;DHT22;10667;51.056;3.732;2023-11-19T03:47:36;13.70;99.90
21019;DHT22;10667;51.056;3.732;2023-11-19T03:50:02;13.70;99.90
21019;DHT22;10667;51.056;3.732;2023-11-19T03:52:28;13.70;99.90
21019;DHT22;10667;51.056;3.732;2023-11-19T03:54:55;13.70;99.90
21019;DHT22;10667;51.056;3.732;2023-11-19T03:57:21;13.80;99.90
21019;DHT22;10667;51.056;3.732;2023-11-19T03:59:47;13.70;99.90
21019;DHT22;10667;51.056;3.732;2023-11-19T04:02:13;13.60;99.90
21019;DHT22;10667;51.056;3.732;2023-11-19T04:04:39;13.50;99.90
21019;DHT22;10667;51.056;3.732;2023-11-19T04:07:04;13.50;99.90
21019;DHT22;10667;51.056;3.732;2023-11-19T04:09:31;13.60;99.90
21019;DHT22;10667;51.056;3.732;2023-11-19T04:11:58;13.60;99.90
21019;DHT22;10667;51.056;3.732;2023-11-19T04:14:24;13.50;99.90
21019;DHT22;10667;51.056;3.732;2023-11-19T04:16:50;13.50;99.90
21019;DHT22;10667;51.056;3.732;2023-11-19T04:19:16;13.50;99.90
21019;DHT22;10667;51.056;3.732;2023-11-19T04:21:42;13.60;99.90
21019;DHT22;10667;51.056;3.732;2023-11-19T04:24:11;13.50;99.90
21019;DHT22;10667;51.056;3.732;2023-11-19T04:26:46;13.50;99.90
21019;DHT22;10667;51.056;3.732;2023-11-19T04:29:14;13.40;99.90
21019;DHT22;10667;51.056;3.732;2023-11-19T04:31:41;13.40;99.90
21019;DHT22;10667;51.056;3.732;2023-11-19T04:34:07;13.40;99.90
21019;DHT22;10667;51.056;3.732;2023-11-19T04:36:33;13.40;99.90
21019;DHT22;10667;51.056;3.732;2023-11-19T04:39:00;13.30;99.90
21019;DHT22;10667;51.056;3.732;2023-11-19T04:41:26;13.40;99.90
21019;DHT22;10667;51.056;3.732;2023-11-19T04:43:53;13.30;99.90
21019;DHT22;10667;51.056;3.732;2023-11-19T04:46:19;13.40;99.90
21019;DHT22;10667;51.056;3.732;2023-11-19T04:48:45;13.40;99.90
21019;DHT22;10667;51.056;3.732;2023-11-19T04:51:11;13.30;99.90
21019;DHT22;10667;51.056;3.732;2023-11-19T04:53:36;13.30;99.90
21019;DHT22;10667;51.056;3.732;2023-11-19T04:56:11;13.30;99.90
21019;DHT22;10667;51.056;3.732;2023-11-19T04:58:37;13.30;99.90
21019;DHT22;10667;51.056;3.732;2023-11-19T05:01:05;13.30;99.90
21019;DHT22;10667;51.056;3.732;2023-11-19T05:03:31;13.30;99.90
21019;DHT22;10667;51.056;3.732;2023-11-19T05:05:58;13.30;99.90
21019;DHT22;10667;51.056;3.732;2023-11-19T05:08:23;13.30;99.90
21019;DHT22;10667;51.056;3.732;2023-11-19T05:10:49;13.20;99.90
21019;DHT22;10667;51.056;3.732;2023-11-19T05:13:15;13.10;99.90
21019;DHT22;10667;51.056;3.732;2023-11-19T05:15:41;13.20;99.90
21019;DHT22;10667;51.056;3.732;2023-11-19T05:18:06;13.20;99.90
21019;DHT22;10667;51.056;3.732;2023-11-19T05:20:32;13.10;99.90
21019;DHT22;10667;51.056;3.732;2023-11-19T05:22:58;13.10;99.90
21019;DHT22;10667;51.056;3.732;2023-11-19T05:25:26;13.20;99.90
21019;DHT22;10667;51.056;3.732;2023-11-19T05:27:52;13.20;99.90
21019;DHT22;10667;51.056;3.732;2023-11-19T05:30:18;13.20;99.90
21019;DHT22;10667;51.056;3.732;2023-11-19T05:32:43;13.20;99.90
21019;DHT22;10667;51.056;3.732;2023-11-19T05:35:09;13.20;99.90
21019;DHT22;10667;51.056;3.732;2023-11-19T05:37:35;13.20;99.90
21019;DHT22;10667;51.056;3.732;2023-11-19T05:40:01;13.20;99.90
21019;DHT22;10667;51.056;3.732;2023-11-19T05:42:29;13.20;99.90
21019;DHT22;10667;51.056;3.732;2023-11-19T05:44:54;13.20;99.90
21019;DHT22;10667;51.056;3.732;2023-11-19T05:47:20;13.20;99.90
21019;DHT22;10667;51.056;3.732;2023-11-19T05:49:46;13.20;99.90
21019;DHT22;10667;51.056;3.732;2023-11-19T05:52:11;13.10;99.90
21019;DHT22;10667;51.056;3.732;2023-11-19T05:54:38;13.10;99.90
21019;DHT22;10667;51.056;3.732;2023-11-19T05:57:07;13.10;99.90
21019;DHT22;10667;51.056;3.732;2023-11-19T05:59:35;13.10;99.90
21019;DHT22;10667;51.056;3.732;2023-11-19T06:02:02;13.10;99.90
21019;DHT22;10667;51.056;3.732;2023-11-19T06:04:28;13.10;99.90
21019;DHT22;10667;51.056;3.732;2023-11-19T06:06:54;13.10;99.90
21019;DHT22;10667;51.056;3.732;2023-11-19T06:09:22;12.90;99.90
21019;DHT22;10667;51.056;3.732;2023-11-19T06:11:51;12.90;99.90
21019;DHT22;10667;51.056;3.732;2023-11-19T06:14:18;12.90;99.90
21019;DHT22;10667;51.056;3.732;2023-11-19T06:16:44;12.90;99.90
21019;DHT22;10667;51.056;3.732;2023-11-19T06:19:09;12.90;99.90
21019;DHT22;10667;51.056;3.732;2023-11-19T06:21:36;12.80;99.90
21019;DHT22;10667;51.056;3.732;2023-11-19T06:24:02;12.80;99.90
21019;DHT22;10667;51.056;3.732;2023-11-19T06:26:28;12.80;99.90
21019;DHT22;10667;51.056;3.732;2023-11-19T06:28:54;12.80;99.90
21019;DHT22;10667;51.056;3.732;2023-11-19T06:31:20;12.90;99.90
21019;DHT22;10667;51.056;3.732;2023-11-19T06:33:46;12.80;99.90
21019;DHT22;10667;51.056;3.732;2023-11-19T06:36:14;12.80;99.90
21019;DHT22;10667;51.056;3.732;2023-11-19T06:38:42;12.80;99.90
21019;DHT22;10667;51.056;3.732;2023-11-19T06:41:08;12.80;99.90
21019;DHT22;10667;51.056;3.732;2023-11-19T06:43:37;12.80;99.90
21019;DHT22;10667;51.056;3.732;2023-11-19T06:46:03;12.80;99.90
21019;DHT22;10667;51.056;3.732;2023-11-19T06:48:32;12.80;99.90
21019;DHT22;10667;51.056;3.732;2023-11-19T06:50:58;12.80;99.90
21019;DHT22;10667;51.056;3.732;2023-11-19T06:53:24;12.90;99.90
21019;DHT22;10667;51.056;3.732;2023-11-19T06:55:50;12.80;99.90
21019;DHT22;10667;51.056;3.732;2023-11-19T06:58:15;12.90;99.90
21019;DHT22;10667;51.056;3.732;2023-11-19T07:00:42;12.80;99.90
21019;DHT22;10667;51.056;3.732;2023-11-19T07:03:08;12.80;99.90
21019;DHT22;10667;51.056;3.732;2023-11-19T07:05:36;12.80;99.90
21019;DHT22;10667;51.056;3.732;2023-11-19T07:08:05;12.80;99.90
21019;DHT22;10667;51.056;3.732;2023-11-19T07:10:32;12.80;99.90
21019;DHT22;10667;51.056;3.732;2023-11-19T07:12:59;12.80;99.90
21019;DHT22;10667;51.056;3.732;2023-11-19T07:15:24;12.80;99.90
21019;DHT22;10667;51.056;3.732;2023-11-19T07:17:50;12.70;99.90
21019;DHT22;10667;51.056;3.732;2023-11-19T07:20:16;12.80;99.90
21019;DHT22;10667;51.056;3.732;2023-11-19T07:22:44;12.70;99.90
21019;DHT22;10667;51.056;3.732;2023-11-19T07:25:13;12.80;99.90
21019;DHT22;10667;51.056;3.732;2023-11-19T07:27:39;12.70;99.90
21019;DHT22;10667;51.056;3.732;2023-11-19T07:30:06;12.70;99.90
21019;DHT22;10667;51.056;3.732;2023-11-19T07:32:35;12.70;99.90
21019;DHT22;10667;51.056;3.732;2023-11-19T07:35:00;12.90;99.90
21019;DHT22;10667;51.056;3.732;2023-11-19T07:37:26;12.90;99.90
21019;DHT22;10667;51.056;3.732;2023-11-19T07:39:52;12.90;99.90
21019;DHT22;10667;51.056;3.732;2023-11-19T07:42:17;13.00;99.90
21019;DHT22;10667;51.056;3.732;2023-11-19T07:44:43;12.90;99.90
21019;DHT22;10667;51.056;3.732;2023-11-19T07:47:09;13.10;99.90
21019;DHT22;10667;51.056;3.732;2023-11-19T07:49:35;13.10;99.90
21019;DHT22;10667;51.056;3.732;2023-11-19T07:52:01;13.10;99.90
21019;DHT22;10667;51.056;3.732;2023-11-19T07:54:28;13.10;99.90
21019;DHT22;10667;51.056;3.732;2023-11-19T07:56:54;13.20;99.90
21019;DHT22;10667;51.056;3.732;2023-11-19T07:59:19;13.10;99.90
21019;DHT22;10667;51.056;3.732;2023-11-19T08:01:45;13.10;99.90
21019;DHT22;10667;51.056;3.732;2023-11-19T08:04:11;13.10;99.90
21019;DHT22;10667;51.056;3.732;2023-11-19T08:06:36;13.10;99.90
21019;DHT22;10667;51.056;3.732;2023-11-19T08:09:02;13.20;99.90
21019;DHT22;10667;51.056;3.732;2023-11-19T08:11:28;13.30;99.90
21019;DHT22;10667;51.056;3.732;2023-11-19T08:13:53;13.20;99.90
21019;DHT22;10667;51.056;3.732;2023-11-19T08:16:19;13.20;99.90
21019;DHT22;10667;51.056;3.732;2023-11-19T08:18:44;13.30;99.90
21019;DHT22;10667;51.056;3.732;2023-11-19T08:21:10;13.20;99.90
21019;DHT22;10667;51.056;3.732;2023-11-19T08:23:36;13.20;99.90
21019;DHT22;10667;51.056;3.732;2023-11-19T08:26:02;13.10;99.90
21019;DHT22;10667;51.056;3.732;2023-11-19T08:28:28;13.10;99.90
21019;DHT22;10667;51.056;3.732;2023-11-19T08:30:54;13.10;99.90
21019;DHT22;10667;51.056;3.732;2023-11-19T08:33:20;13.20;99.90
21019;DHT22;10667;51.056;3.732;2023-11-19T08:35:48;13.30;99.90
21019;DHT22;10667;51.056;3.732;2023-11-19T08:38:13;13.30;99.90
21019;DHT22;10667;51.056;3.732;2023-11-19T08:40:39;13.40;99.90
21019;DHT22;10667;51.056;3.732;2023-11-19T08:43:05;13.40;99.90
21019;DHT22;10667;51.056;3.732;2023-11-19T08:45:31;13.40;99.90
21019;DHT22;10667;51.056;3.732;2023-11-19T08:47:57;13.40;99.90
21019;DHT22;10667;51.056;3.732;2023-11-19T08:50:23;13.50;99.90
21019;DHT22;10667;51.056;3.732;2023-11-19T08:52:49;13.60;99.90
21019;DHT22;10667;51.056;3.732;2023-11-19T08:55:15;13.60;99.90
21019;DHT22;10667;51.056;3.732;2023-11-19T08:57:40;13.60;99.90
21019;DHT22;10667;51.056;3.732;2023-11-19T09:00:07;13.70;99.90
21019;DHT22;10667;51.056;3.732;2023-11-19T09:02:34;13.70;99.90
21019;DHT22;10667;51.056;3.732;2023-11-19T09:05:00;13.80;99.90
21019;DHT22;10667;51.056;3.732;2023-11-19T09:07:27;13.80;99.90
21019;DHT22;10667;51.056;3.732;2023-11-19T09:09:53;13.80;99.90
21019;DHT22;10667;51.056;3.732;2023-11-19T09:12:18;13.80;99.90
21019;DHT22;10667;51.056;3.732;2023-11-19T09:14:44;13.80;99.90
21019;DHT22;10667;51.056;3.732;2023-11-19T09:17:11;13.70;99.90
21019;DHT22;10667;51.056;3.732;2023-11-19T09:19:37;13.80;99.90
21019;DHT22;10667;51.056;3.732;2023-11-19T09:22:02;13.70;99.90
21019;DHT22;10667;51.056;3.732;2023-11-19T09:24:29;13.70;99.90
21019;DHT22;10667;51.056;3.732;2023-11-19T09:26:54;13.70;99.90
21019;DHT22;10667;51.056;3.732;2023-11-19T09:29:21;13.80;99.90
21019;DHT22;10667;51.056;3.732;2023-11-19T09:31:47;13.70;99.90
21019;DHT22;10667;51.056;3.732;2023-11-19T09:34:13;13.70;99.90
21019;DHT22;10667;51.056;3.732;2023-11-19T09:36:38;13.60;99.90
21019;DHT22;10667;51.056;3.732;2023-11-19T09:39:13;13.60;99.90
21019;DHT22;10667;51.056;3.732;2023-11-19T09:41:44;13.60;99.90
21019;DHT22;10667;51.056;3.732;2023-11-19T09:44:10;13.60;99.90
21019;DHT22;10667;51.056;3.732;2023-11-19T09:46:38;13.70;99.90
21019;DHT22;10667;51.056;3.732;2023-11-19T09:49:07;13.70;99.90
21019;DHT22;10667;51.056;3.732;2023-11-19T09:51:35;13.70;99.90
21019;DHT22;10667;51.056;3.732;2023-11-19T09:54:01;13.80;99.90
21019;DHT22;10667;51.056;3.732;2023-11-19T09:56:29;13.80;99.90
21019;DHT22;10667;51.056;3.732;2023-11-19T09:58:55;13.90;99.90
21019;DHT22;10667;51.056;3.732;2023-11-19T10:01:21;13.90;99.90
21019;DHT22;10667;51.056;3.732;2023-11-19T10:03:47;13.90;99.90
21019;DHT22;10667;51.056;3.732;2023-11-19T10:06:15;13.90;99.90
21019;DHT22;10667;51.056;3.732;2023-11-19T10:08:43;13.90;99.90
21019;DHT22;10667;51.056;3.732;2023-11-19T10:11:09;13.80;99.90
21019;DHT22;10667;51.056;3.732;2023-11-19T10:13:38;13.80;99.90
21019;DHT22;10667;51.056;3.732;2023-11-19T10:16:08;13.80;99.90
21019;DHT22;10667;51.056;3.732;2023-11-19T10:18:34;13.90;99.90
21019;DHT22;10667;51.056;3.732;2023-11-19T10:21:06;13.80;99.90
21019;DHT22;10667;51.056;3.732;2023-11-19T10:23:50;13.80;99.90
21019;DHT22;10667;51.056;3.732;2023-11-19T10:26:17;13.70;99.90
21019;DHT22;10667;51.056;3.732;2023-11-19T10:28:44;13.70;99.90
21019;DHT22;10667;51.056;3.732;2023-11-19T10:31:15;13.70;99.90
21019;DHT22;10667;51.056;3.732;2023-11-19T10:33:41;13.70;99.90
21019;DHT22;10667;51.056;3.732;2023-11-19T10:36:08;13.80;99.90
21019;DHT22;10667;51.056;3.732;2023-11-19T10:38:33;13.80;99.90
21019;DHT22;10667;51.056;3.732;2023-11-19T10:40:59;13.90;99.90
21019;DHT22;10667;51.056;3.732;2023-11-19T10:43:25;14.00;99.90
21019;DHT22;10667;51.056;3.732;2023-11-19T10:45:51;14.10;99.90
21019;DHT22;10667;51.056;3.732;2023-11-19T10:48:17;14.10;99.90
21019;DHT22;10667;51.056;3.732;2023-11-19T10:50:46;14.00;99.90
21019;DHT22;10667;51.056;3.732;2023-11-19T10:53:12;14.00;99.90
21019;DHT22;10667;51.056;3.732;2023-11-19T10:55:41;14.00;99.90
21019;DHT22;10667;51.056;3.732;2023-11-19T10:58:10;14.00;99.90
21019;DHT22;10667;51.056;3.732;2023-11-19T11:00:44;13.90;99.90
21019;DHT22;10667;51.056;3.732;2023-11-19T11:05:41;14.00;99.90
21019;DHT22;10667;51.056;3.732;2023-11-19T11:08:08;14.10;99.90
21019;DHT22;10667;51.056;3.732;2023-11-19T11:10:40;14.00;99.90
21019;DHT22;10667;51.056;3.732;2023-11-19T11:13:07;14.20;99.90
21019;DHT22;10667;51.056;3.732;2023-11-19T11:15:34;14.30;99.90
21019;DHT22;10667;51.056;3.732;2023-11-19T11:18:01;14.30;99.90
21019;DHT22;10667;51.056;3.732;2023-11-19T11:20:32;14.40;99.90
21019;DHT22;10667;51.056;3.732;2023-11-19T11:28:39;14.60;99.90
21019;DHT22;10667;51.056;3.732;2023-11-19T11:31:34;14.50;99.90
21019;DHT22;10667;51.056;3.732;2023-11-19T11:39:30;14.20;99.90
21019;DHT22;10667;51.056;3.732;2023-11-19T11:47:25;14.10;99.90
21019;DHT22;10667;51.056;3.732;2023-11-19T11:49:52;14.00;99.90
21019;DHT22;10667;51.056;3.732;2023-11-19T11:52:18;13.90;99.90
21019;DHT22;10667;51.056;3.732;2023-11-19T11:54:44;13.80;99.90
21019;DHT22;10667;51.056;3.732;2023-11-19T11:57:12;13.90;99.90
21019;DHT22;10667;51.056;3.732;2023-11-19T12:02:12;13.90;99.90
21019;DHT22;10667;51.056;3.732;2023-11-19T12:04:39;13.80;99.90
21019;DHT22;10667;51.056;3.732;2023-11-19T12:07:13;13.80;99.90
21019;DHT22;10667;51.056;3.732;2023-11-19T12:09:42;13.70;99.90
21019;DHT22;10667;51.056;3.732;2023-11-19T12:15:03;13.90;99.90
21019;DHT22;10667;51.056;3.732;2023-11-19T12:17:37;13.90;99.90
21019;DHT22;10667;51.056;3.732;2023-11-19T12:20:06;14.10;99.90
21019;DHT22;10667;51.056;3.732;2023-11-19T12:22:41;14.20;99.90
21019;DHT22;10667;51.056;3.732;2023-11-19T12:25:08;14.30;99.90
21019;DHT22;10667;51.056;3.732;2023-11-19T12:27:47;14.30;99.90
21019;DHT22;10667;51.056;3.732;2023-11-19T12:30:23;14.40;99.90
21019;DHT22;10667;51.056;3.732;2023-11-19T12:32:53;14.30;99.90
21019;DHT22;10667;51.056;3.732;2023-11-19T12:35:22;14.30;99.90
21019;DHT22;10667;51.056;3.732;2023-11-19T12:37:50;14.30;99.90
21019;DHT22;10667;51.056;3.732;2023-11-19T12:40:25;14.10;99.90
21019;DHT22;10667;51.056;3.732;2023-11-19T12:42:55;14.10;99.90
21019;DHT22;10667;51.056;3.732;2023-11-19T12:45:21;14.10;99.90
21019;DHT22;10667;51.056;3.732;2023-11-19T12:47:49;14.00;99.90
21019;DHT22;10667;51.056;3.732;2023-11-19T12:50:17;13.90;99.90
21019;DHT22;10667;51.056;3.732;2023-11-19T12:52:55;13.90;99.90
21019;DHT22;10667;51.056;3.732;2023-11-19T12:55:29;13.80;99.90
21019;DHT22;10667;51.056;3.732;2023-11-19T12:57:55;13.80;99.90
21019;DHT22;10667;51.056;3.732;2023-11-19T13:00:23;13.80;99.90
21019;DHT22;10667;51.056;3.732;2023-11-19T13:02:53;13.80;99.90
21019;DHT22;10667;51.056;3.732;2023-11-19T13:05:34;13.80;99.90
21019;DHT22;10667;51.056;3.732;2023-11-19T13:08:06;13.70;99.90
21019;DHT22;10667;51.056;3.732;2023-11-19T13:10:33;13.80;99.90
21019;DHT22;10667;51.056;3.732;2023-11-19T13:13:08;13.90;99.90
21019;DHT22;10667;51.056;3.732;2023-11-19T13:15:35;14.00;99.90
21019;DHT22;10667;51.056;3.732;2023-11-19T13:18:02;14.10;99.90
21019;DHT22;10667;51.056;3.732;2023-11-19T13:20:28;14.10;99.90
21019;DHT22;10667;51.056;3.732;2023-11-19T13:22:59;14.20;99.90
21019;DHT22;10667;51.056;3.732;2023-11-19T13:25:25;14.20;99.90
21019;DHT22;10667;51.056;3.732;2023-11-19T13:27:51;14.30;99.90
21019;DHT22;10667;51.056;3.732;2023-11-19T13:30:17;14.30;99.90
21019;DHT22;10667;51.056;3.732;2023-11-19T13:32:44;14.20;99.90
21019;DHT22;10667;51.056;3.732;2023-11-19T13:35:12;14.20;99.90
21019;DHT22;10667;51.056;3.732;2023-11-19T13:37:38;14.20;99.90
21019;DHT22;10667;51.056;3.732;2023-11-19T13:40:05;14.30;99.90
21019;DHT22;10667;51.056;3.732;2023-11-19T13:42:30;14.30;99.90
21019;DHT22;10667;51.056;3.732;2023-11-19T13:44:56;14.30;99.90
21019;DHT22;10667;51.056;3.732;2023-11-19T13:47:22;14.20;99.90
21019;DHT22;10667;51.056;3.732;2023-11-19T13:49:49;14.20;99.90
21019;DHT22;10667;51.056;3.732;2023-11-19T13:52:15;14.20;99.90
21019;DHT22;10667;51.056;3.732;2023-11-19T13:54:40;14.10;99.90
21019;DHT22;10667;51.056;3.732;2023-11-19T13:57:06;14.10;99.90
21019;DHT22;10667;51.056;3.732;2023-11-19T13:59:32;13.90;99.90
21019;DHT22;10667;51.056;3.732;2023-11-19T14:01:58;13.90;99.90
21019;DHT22;10667;51.056;3.732;2023-11-19T14:04:24;13.80;99.90
21019;DHT22;10667;51.056;3.732;2023-11-19T14:06:50;13.90;99.90
21019;DHT22;10667;51.056;3.732;2023-11-19T14:09:16;13.80;99.90
21019;DHT22;10667;51.056;3.732;2023-11-19T14:11:43;13.80;99.90
21019;DHT22;10667;51.056;3.732;2023-11-19T14:14:08;13.80;99.90
21019;DHT22;10667;51.056;3.732;2023-11-19T14:16:34;13.70;99.90
21019;DHT22;10667;51.056;3.732;2023-11-19T14:19:00;13.70;99.90
21019;DHT22;10667;51.056;3.732;2023-11-19T14:21:26;13.60;99.90
21019;DHT22;10667;51.056;3.732;2023-11-19T14:23:52;13.60;99.90
21019;DHT22;10667;51.056;3.732;2023-11-19T14:26:18;13.60;99.90
21019;DHT22;10667;51.056;3.732;2023-11-19T14:28:44;13.50;99.90
21019;DHT22;10667;51.056;3.732;2023-11-19T14:31:09;13.60;99.90
21019;DHT22;10667;51.056;3.732;2023-11-19T14:33:35;13.60;99.90
21019;DHT22;10667;51.056;3.732;2023-11-19T14:36:01;13.70;99.90
21019;DHT22;10667;51.056;3.732;2023-11-19T14:38:27;13.70;99.90
21019;DHT22;10667;51.056;3.732;2023-11-19T14:40:53;13.70;99.90
21019;DHT22;10667;51.056;3.732;2023-11-19T14:43:20;13.70;99.90
21019;DHT22;10667;51.056;3.732;2023-11-19T14:45:46;13.70;99.90
21019;DHT22;10667;51.056;3.732;2023-11-19T14:48:11;13.70;99.90
21019;DHT22;10667;51.056;3.732;2023-11-19T14:50:37;13.70;99.90
21019;DHT22;10667;51.056;3.732;2023-11-19T14:53:02;13.70;99.90
21019;DHT22;10667;51.056;3.732;2023-11-19T14:55:28;13.80;99.90
21019;DHT22;10667;51.056;3.732;2023-11-19T14:57:54;13.70;99.90
21019;DHT22;10667;51.056;3.732;2023-11-19T15:00:21;13.80;99.90
21019;DHT22;10667;51.056;3.732;2023-11-19T15:02:47;13.80;99.90
21019;DHT22;10667;51.056;3.732;2023-11-19T15:05:12;13.80;99.90
21019;DHT22;10667;51.056;3.732;2023-11-19T15:07:39;13.70;99.90
21019;DHT22;10667;51.056;3.732;2023-11-19T15:10:06;13.70;99.90
21019;DHT22;10667;51.056;3.732;2023-11-19T15:12:38;13.70;99.90
21019;DHT22;10667;51.056;3.732;2023-11-19T15:15:06;13.60;99.90
21019;DHT22;10667;51.056;3.732;2023-11-19T15:17:32;13.60;99.90
21019;DHT22;10667;51.056;3.732;2023-11-19T15:19:58;13.60;99.90
21019;DHT22;10667;51.056;3.732;2023-11-19T15:22:24;13.60;99.90
21019;DHT22;10667;51.056;3.732;2023-11-19T15:24:50;13.50;99.90
21019;DHT22;10667;51.056;3.732;2023-11-19T15:27:15;13.50;99.90
21019;DHT22;10667;51.056;3.732;2023-11-19T15:29:42;13.50;99.90
21019;DHT22;10667;51.056;3.732;2023-11-19T15:32:07;13.40;99.90
21019;DHT22;10667;51.056;3.732;2023-11-19T15:34:33;13.40;99.90
21019;DHT22;10667;51.056;3.732;2023-11-19T15:37:00;13.40;99.90
21019;DHT22;10667;51.056;3.732;2023-11-19T15:39:26;13.30;99.90
21019;DHT22;10667;51.056;3.732;2023-11-19T15:41:53;13.40;99.90
21019;DHT22;10667;51.056;3.732;2023-11-19T15:44:20;13.40;99.90
21019;DHT22;10667;51.056;3.732;2023-11-19T15:46:46;13.40;99.90
21019;DHT22;10667;51.056;3.732;2023-11-19T15:49:12;13.40;99.90
21019;DHT22;10667;51.056;3.732;2023-11-19T15:51:37;13.30;99.90
21019;DHT22;10667;51.056;3.732;2023-11-19T15:54:03;13.40;99.90